»·PEaware :: N982YR KSBA-KSNA

N982YR :: KSBA-KSNA

FLIGHT INFORMATION

Flight Status: Arrived
Operator: Privately registered:
United States
More flights under this callsign
Pilot: Anonymous 15639 (15639)
Aircraft: CESSNA 172 SKYHAWK
(C172)
More flights by this aircraft type
Origin: KSBA Santa Barbara Mun
United States
Destination: KSNA John Wayne-Orange Co
United States
More flights between these airports :: More routes between these airports
Route: KWANG CMA VNY V186 BAYJY V363 POXKU V8 SLI
File this flight plan on PilotEdge
Remarks: TEC route SBAP6
Altitude:
(Current/Filed)
5,000ft
Speed:
(Current/Filed)
110kts
Departed: 31-Mar-19 10:15 AM
Arrived: 31-Mar-19 11:32 AM
Distance/Time
Traveled:
108nm/1:16
Distance/Time
To Go:
Arrived

Flight Plot

Page will automatically refresh every two minutes.


Map Options




Map Legend


Flown Route
Filed Route
Departure Airport
Arrival Airport
Navaid (VOR, NDB)
Fix

Horizontal Profiles

Position Reports

Time Latitude Longitude Heading Altitude Ground
Speed
31-Mar-19 09:59 34.430245 -119.842733 247 17ft 0kts
31-Mar-19 10:00 34.430245 -119.842733 247 17ft 0kts
31-Mar-19 10:01 34.430245 -119.842733 247 17ft 0kts
31-Mar-19 10:02 34.430245 -119.842733 247 17ft 0kts
31-Mar-19 10:03 34.430245 -119.842733 247 17ft 0kts
31-Mar-19 10:04 34.430245 -119.842733 247 17ft 0kts
31-Mar-19 10:05 34.430245 -119.842733 247 17ft 0kts
31-Mar-19 10:06 34.430245 -119.842733 247 17ft 0kts
31-Mar-19 10:07 34.430245 -119.842733 247 17ft 0kts
31-Mar-19 10:08 34.430245 -119.842733 247 17ft 0kts
31-Mar-19 10:09 34.430245 -119.842733 247 17ft 0kts
31-Mar-19 10:10 34.430079 -119.842893 179 17ft 2kts
31-Mar-19 10:11 34.429719 -119.842684 146 17ft 6kts
31-Mar-19 10:12 34.429818 -119.842161 61 17ft 0kts
31-Mar-19 10:13 34.429839 -119.842114 60 17ft 2kts
31-Mar-19 10:14 34.421967 -119.839060 164 203ft 66kts
31-Mar-19 10:15 34.402955 -119.833863 164 876ft 74kts
31-Mar-19 10:16 34.383098 -119.828037 159 1543ft 75kts
31-Mar-19 10:17 34.362562 -119.822176 161 2179ft 72kts
31-Mar-19 10:18 34.341995 -119.818640 164 2763ft 73kts
31-Mar-19 10:19 34.321623 -119.814979 164 3322ft 75kts
31-Mar-19 10:20 34.300852 -119.810991 164 3856ft 76kts
31-Mar-19 10:21 34.290236 -119.794598 92 4362ft 71kts
31-Mar-19 10:22 34.289014 -119.770529 91 4845ft 72kts
31-Mar-19 10:23 34.287760 -119.742712 91 5005ft 100kts
31-Mar-19 10:24 34.286026 -119.706577 91 5000ft 110kts
31-Mar-19 10:25 34.284269 -119.669439 91 4999ft 110kts
31-Mar-19 10:26 34.282523 -119.632617 91 4999ft 109kts
31-Mar-19 10:27 34.280759 -119.595768 91 4999ft 109kts
31-Mar-19 10:28 34.279031 -119.558943 91 4999ft 109kts
31-Mar-19 10:29 34.277254 -119.522131 91 4998ft 109kts
31-Mar-19 10:30 34.275493 -119.485384 91 5009ft 109kts
31-Mar-19 10:31 34.273721 -119.448592 91 5008ft 109kts
31-Mar-19 10:32 34.271918 -119.411719 91 5012ft 109kts
31-Mar-19 10:33 34.270132 -119.374837 91 5019ft 109kts
31-Mar-19 10:34 34.268303 -119.337832 92 5020ft 110kts
31-Mar-19 10:35 34.266436 -119.300296 92 5020ft 110kts
31-Mar-19 10:36 34.264594 -119.263324 92 5017ft 110kts
31-Mar-19 10:37 34.262710 -119.226210 92 5018ft 110kts
31-Mar-19 10:38 34.260848 -119.189085 92 5018ft 111kts
31-Mar-19 10:39 34.258950 -119.151771 92 5018ft 111kts
31-Mar-19 10:40 34.257025 -119.114475 92 5018ft 111kts
31-Mar-19 10:41 34.255126 -119.077301 92 5018ft 111kts
31-Mar-19 10:42 34.253221 -119.040082 92 5019ft 110kts
31-Mar-19 10:43 34.251269 -119.002752 92 5017ft 110kts
31-Mar-19 10:44 34.249307 -118.965450 92 5012ft 111kts
31-Mar-19 10:45 34.247345 -118.928102 92 5009ft 111kts
31-Mar-19 10:46 34.245362 -118.890898 92 5007ft 110kts
31-Mar-19 10:47 34.243366 -118.853571 92 5004ft 111kts
31-Mar-19 10:48 34.241363 -118.816301 92 5001ft 111kts
31-Mar-19 10:49 34.239387 -118.778982 93 4999ft 111kts
31-Mar-19 10:50 34.237339 -118.741530 93 4980ft 111kts
31-Mar-19 10:51 34.235313 -118.704149 93 4982ft 111kts
31-Mar-19 10:52 34.233260 -118.666529 93 4981ft 112kts
31-Mar-19 10:53 34.231161 -118.628825 93 4980ft 112kts
31-Mar-19 10:54 34.229102 -118.591216 93 4981ft 112kts
31-Mar-19 10:55 34.226988 -118.553668 93 4981ft 112kts
31-Mar-19 10:56 34.224867 -118.516099 93 4981ft 111kts
31-Mar-19 10:57 34.219222 -118.479332 107 4982ft 111kts
31-Mar-19 10:58 34.208948 -118.444093 108 4983ft 110kts
31-Mar-19 10:59 34.198416 -118.408942 108 4980ft 111kts
31-Mar-19 11:00 34.187814 -118.373912 108 4980ft 111kts
31-Mar-19 11:01 34.177217 -118.339074 109 4982ft 112kts
31-Mar-19 11:02 34.166488 -118.303699 109 4982ft 111kts
31-Mar-19 11:03 34.155780 -118.268578 109 4982ft 111kts
31-Mar-19 11:04 34.145047 -118.233386 109 4981ft 111kts
31-Mar-19 11:05 34.134367 -118.198245 109 4981ft 111kts
31-Mar-19 11:06 34.123704 -118.163373 109 5001ft 111kts
31-Mar-19 11:07 34.112954 -118.128266 109 5001ft 111kts
31-Mar-19 11:08 34.102126 -118.093005 109 4999ft 111kts
31-Mar-19 11:09 34.091391 -118.057992 109 5000ft 111kts
31-Mar-19 11:10 34.080635 -118.022981 109 5000ft 111kts
31-Mar-19 11:11 34.069855 -117.987926 109 5000ft 111kts
31-Mar-19 11:12 34.059048 -117.952716 109 4999ft 111kts
31-Mar-19 11:13 34.048211 -117.917607 109 5000ft 112kts
31-Mar-19 11:14 34.037375 -117.882540 109 4999ft 111kts
31-Mar-19 11:15 34.026539 -117.847492 109 4999ft 111kts
31-Mar-19 11:16 34.015687 -117.812346 109 4999ft 111kts
31-Mar-19 11:17 33.995075 -117.787584 165 4991ft 116kts
31-Mar-19 11:18 33.962784 -117.784718 175 4990ft 116kts
31-Mar-19 11:19 33.930256 -117.783953 175 4990ft 117kts
31-Mar-19 11:20 33.898153 -117.783275 175 4990ft 116kts
31-Mar-19 11:21 33.865623 -117.782726 183 4989ft 118kts
31-Mar-19 11:22 33.846056 -117.813946 248 4991ft 122kts
31-Mar-19 11:23 33.835522 -117.853102 251 4990ft 123kts
31-Mar-19 11:24 33.825358 -117.892378 251 4992ft 123kts
31-Mar-19 11:25 33.814169 -117.931175 232 4895ft 121kts
31-Mar-19 11:26 33.785510 -117.930429 149 3752ft 114kts
31-Mar-19 11:27 33.758688 -117.910278 143 2583ft 113kts
31-Mar-19 11:28 33.734180 -117.886698 140 1612ft 112kts
31-Mar-19 11:29 33.712202 -117.864023 142 958ft 89kts
31-Mar-19 11:30 33.691686 -117.858624 207 299ft 78kts
31-Mar-19 11:31 33.676057 -117.868587 219 60ft 25kts
31-Mar-19 11:32 33.677062 -117.871379 15 60ft 7kts
31-Mar-19 11:33 33.677042 -117.871254 206 60ft 0kts

Navigation Log

Ident Type
Flight plan parsing failed, navigation log unavailable